createdAt,value
2018-12-31T00:00:43.009Z,9.31
2018-12-31T00:01:42.993Z,9.32
2018-12-31T00:02:42.918Z,9.32
2018-12-31T00:03:42.878Z,9.36
2018-12-31T00:04:42.839Z,9.35
2018-12-31T00:05:42.809Z,9.33
2018-12-31T00:06:42.784Z,9.35
2018-12-31T00:07:42.713Z,9.33
2018-12-31T00:08:42.664Z,9.35
2018-12-31T00:09:42.625Z,9.36
2018-12-31T00:10:42.580Z,9.38
2018-12-31T00:11:42.567Z,9.36
2018-12-31T00:12:42.495Z,9.36
2018-12-31T00:13:42.461Z,9.38
2018-12-31T00:14:42.446Z,9.36
2018-12-31T00:15:42.373Z,9.35
2018-12-31T00:16:42.324Z,9.38
2018-12-31T00:17:42.308Z,9.36
2018-12-31T00:18:42.246Z,9.36
2018-12-31T00:19:42.205Z,9.35
2018-12-31T00:20:42.155Z,9.36
2018-12-31T00:21:42.109Z,9.38
2018-12-31T00:22:42.072Z,9.35
2018-12-31T00:23:42.050Z,9.36
2018-12-31T00:24:42.010Z,9.43
2018-12-31T00:25:41.950Z,9.38
2018-12-31T00:26:41.908Z,9.43
2018-12-31T00:27:41.879Z,9.40
2018-12-31T00:28:41.847Z,9.40
2018-12-31T00:29:41.775Z,9.39
2018-12-31T00:30:41.746Z,9.38
2018-12-31T00:31:41.716Z,9.42
2018-12-31T00:32:41.672Z,9.39
2018-12-31T00:33:41.654Z,9.39
2018-12-31T00:34:41.590Z,9.46
2018-12-31T00:35:41.545Z,9.38
2018-12-31T00:36:41.496Z,9.40
2018-12-31T00:37:41.463Z,9.40
2018-12-31T00:38:41.460Z,9.40
2018-12-31T00:39:41.365Z,9.40
2018-12-31T00:40:41.315Z,9.40
2018-12-31T00:41:41.317Z,9.42
2018-12-31T00:42:41.241Z,9.46
2018-12-31T00:43:41.269Z,9.46
2018-12-31T00:44:41.156Z,9.46
2018-12-31T00:45:41.140Z,9.42
2018-12-31T00:46:41.064Z,9.32
2018-12-31T00:47:41.027Z,9.48
2018-12-31T00:48:40.983Z,9.46
2018-12-31T00:49:40.975Z,9.38
2018-12-31T00:50:40.928Z,9.31
2018-12-31T00:51:40.873Z,9.38
2018-12-31T00:52:40.810Z,9.43
2018-12-31T00:53:40.773Z,9.39
2018-12-31T00:54:40.758Z,9.42
2018-12-31T00:55:40.698Z,9.36
2018-12-31T00:56:40.635Z,9.38
2018-12-31T00:57:40.621Z,9.50
2018-12-31T00:58:40.583Z,9.40
2018-12-31T00:59:40.560Z,9.46
2018-12-31T01:00:49.537Z,9.48
2018-12-31T01:01:50.577Z,9.48
2018-12-31T01:02:40.370Z,9.48
2018-12-31T01:03:40.336Z,9.42
2018-12-31T01:04:40.313Z,9.42
2018-12-31T01:05:40.267Z,9.43
2018-12-31T01:06:40.211Z,9.46
2018-12-31T01:07:40.190Z,9.40
2018-12-31T01:08:40.114Z,9.46
2018-12-31T01:09:40.106Z,9.46
2018-12-31T01:10:40.035Z,9.36
2018-12-31T01:11:39.992Z,9.40
2018-12-31T01:12:41.289Z,9.39
2018-12-31T01:13:39.919Z,9.36
2018-12-31T01:14:39.915Z,9.40
2018-12-31T01:15:39.830Z,9.51
2018-12-31T01:16:39.799Z,9.51
2018-12-31T01:17:39.734Z,9.48
2018-12-31T01:18:39.703Z,9.40
2018-12-31T01:19:39.701Z,9.53
2018-12-31T01:20:39.605Z,9.47
2018-12-31T01:21:39.560Z,9.48
2018-12-31T01:22:39.545Z,9.47
2018-12-31T01:23:39.484Z,9.47
2018-12-31T01:24:39.543Z,9.47
2018-12-31T01:25:39.399Z,9.46
2018-12-31T01:26:39.365Z,9.46
2018-12-31T01:27:39.329Z,9.42
2018-12-31T01:28:39.285Z,9.47
2018-12-31T01:29:39.261Z,9.50
2018-12-31T01:30:39.227Z,9.50
2018-12-31T01:31:39.165Z,9.48
2018-12-31T01:32:39.117Z,9.43
2018-12-31T01:33:39.069Z,9.40
2018-12-31T01:34:39.020Z,9.40
2018-12-31T01:35:38.986Z,9.48
2018-12-31T01:36:38.958Z,9.50
2018-12-31T01:37:38.904Z,9.47
2018-12-31T01:38:38.865Z,9.43
2018-12-31T01:39:38.810Z,9.51
2018-12-31T01:40:38.799Z,9.46
2018-12-31T01:41:38.822Z,9.50
2018-12-31T01:42:38.681Z,9.40
2018-12-31T01:43:38.640Z,9.47
2018-12-31T01:44:38.603Z,9.53
2018-12-31T01:45:38.558Z,9.50
2018-12-31T01:46:38.534Z,9.39
2018-12-31T01:47:38.491Z,9.40
2018-12-31T01:48:38.435Z,9.46
2018-12-31T01:49:38.394Z,9.51
2018-12-31T01:50:38.340Z,9.50
2018-12-31T01:51:38.345Z,9.46
2018-12-31T01:52:38.257Z,9.47
2018-12-31T01:53:38.222Z,9.50
2018-12-31T01:54:38.162Z,9.48
2018-12-31T01:55:38.133Z,9.50
2018-12-31T01:56:38.119Z,9.53
2018-12-31T01:57:38.045Z,9.53
2018-12-31T01:58:38.026Z,9.51
2018-12-31T01:59:37.957Z,9.51
2018-12-31T02:00:37.952Z,9.56
2018-12-31T02:01:37.888Z,9.53
2018-12-31T02:02:37.871Z,9.53
2018-12-31T02:03:37.790Z,9.47
2018-12-31T02:04:37.744Z,9.48
2018-12-31T02:05:37.745Z,9.50
2018-12-31T02:06:37.691Z,9.47
2018-12-31T02:07:37.648Z,9.57
2018-12-31T02:08:37.613Z,9.53
2018-12-31T02:09:37.546Z,9.58
2018-12-31T02:10:37.519Z,9.57
2018-12-31T02:11:37.499Z,9.51
2018-12-31T02:12:37.449Z,9.50
2018-12-31T02:13:37.361Z,9.47
2018-12-31T02:14:37.344Z,9.43
2018-12-31T02:15:37.286Z,9.47
2018-12-31T02:16:37.238Z,9.60
2018-12-31T02:17:37.220Z,9.50
2018-12-31T02:18:37.206Z,9.47
2018-12-31T02:19:37.120Z,9.51
2018-12-31T02:20:37.073Z,9.53
2018-12-31T02:21:37.051Z,9.48
2018-12-31T02:22:36.999Z,9.51
2018-12-31T02:23:36.971Z,9.51
2018-12-31T02:24:36.916Z,9.54
2018-12-31T02:25:36.928Z,9.58
2018-12-31T02:26:36.816Z,9.61
2018-12-31T02:27:36.794Z,9.57
2018-12-31T02:28:36.790Z,9.48
2018-12-31T02:29:36.727Z,9.54
2018-12-31T02:30:36.644Z,9.57
2018-12-31T02:31:36.632Z,9.54
2018-12-31T02:32:36.570Z,9.53
2018-12-31T02:33:36.547Z,9.53
2018-12-31T02:34:36.488Z,9.54
2018-12-31T02:35:36.450Z,9.56
2018-12-31T02:36:36.400Z,9.51
2018-12-31T02:37:36.371Z,9.51
2018-12-31T02:38:36.342Z,9.50
2018-12-31T02:39:36.263Z,9.54
2018-12-31T02:40:36.236Z,9.60
2018-12-31T02:41:36.201Z,9.54
2018-12-31T02:42:36.144Z,9.61
2018-12-31T02:43:36.118Z,9.57
2018-12-31T02:44:36.086Z,9.61
2018-12-31T02:45:36.036Z,9.56
2018-12-31T02:46:35.982Z,9.60
2018-12-31T02:47:35.937Z,9.58
2018-12-31T02:48:35.898Z,9.58
2018-12-31T02:49:35.842Z,9.56
2018-12-31T02:50:35.842Z,9.56
2018-12-31T02:51:35.761Z,9.58
2018-12-31T02:52:35.718Z,9.57
2018-12-31T02:53:35.708Z,9.60
2018-12-31T02:54:35.650Z,9.64
2018-12-31T02:55:35.594Z,9.56
2018-12-31T02:56:35.568Z,9.56
2018-12-31T02:57:35.535Z,9.48
2018-12-31T02:58:35.480Z,9.61
2018-12-31T02:59:35.424Z,9.66
2018-12-31T03:00:35.426Z,9.60
2018-12-31T03:01:35.338Z,9.58
2018-12-31T03:02:35.288Z,9.61
2018-12-31T03:03:35.249Z,9.60
2018-12-31T03:04:35.234Z,9.57
2018-12-31T03:05:35.165Z,9.56
2018-12-31T03:06:35.154Z,9.61
2018-12-31T03:07:35.108Z,9.60
2018-12-31T03:08:35.054Z,9.61
2018-12-31T03:09:35.018Z,9.57
2018-12-31T03:10:35.051Z,9.56
2018-12-31T03:11:34.953Z,9.60
2018-12-31T03:12:45.111Z,9.65
2018-12-31T03:13:44.156Z,9.61
2018-12-31T03:14:34.785Z,9.54
2018-12-31T03:15:34.741Z,9.61
2018-12-31T03:16:34.726Z,9.56
2018-12-31T03:17:34.651Z,9.57
2018-12-31T03:18:34.618Z,9.57
2018-12-31T03:19:34.564Z,9.60
2018-12-31T03:20:34.544Z,9.57
2018-12-31T03:21:34.490Z,9.57
2018-12-31T03:22:34.466Z,9.60
2018-12-31T03:23:34.418Z,9.60
2018-12-31T03:24:34.359Z,9.66
2018-12-31T03:25:34.326Z,9.58
2018-12-31T03:26:34.284Z,9.58
2018-12-31T03:27:34.273Z,9.65
2018-12-31T03:28:34.209Z,9.56
2018-12-31T03:29:34.249Z,9.56
2018-12-31T03:30:34.101Z,9.60
2018-12-31T03:31:34.055Z,9.65
2018-12-31T03:32:34.074Z,9.61
2018-12-31T03:33:33.994Z,9.60
2018-12-31T03:34:33.943Z,9.58
2018-12-31T03:35:33.898Z,9.64
2018-12-31T03:36:33.856Z,9.64
2018-12-31T03:37:33.814Z,9.56
2018-12-31T03:38:33.807Z,9.57
2018-12-31T03:39:33.742Z,9.58
2018-12-31T03:40:33.688Z,9.58
2018-12-31T03:41:33.664Z,9.60
2018-12-31T03:42:33.609Z,9.61
2018-12-31T03:43:33.566Z,9.57
2018-12-31T03:44:33.526Z,9.58
2018-12-31T03:45:33.481Z,9.54
2018-12-31T03:46:33.460Z,9.57
2018-12-31T03:47:33.399Z,9.57
2018-12-31T03:48:33.340Z,9.54
2018-12-31T03:49:33.303Z,9.56
2018-12-31T03:50:33.270Z,9.60
2018-12-31T03:51:33.228Z,9.64
2018-12-31T03:52:33.229Z,9.65
2018-12-31T03:53:33.187Z,9.60
2018-12-31T03:54:33.080Z,9.66
2018-12-31T03:55:33.045Z,9.60
2018-12-31T03:56:33.043Z,9.60
2018-12-31T03:57:32.980Z,9.58
2018-12-31T03:58:32.933Z,9.57
2018-12-31T03:59:32.913Z,9.66
2018-12-31T04:00:32.864Z,9.60
2018-12-31T04:01:32.817Z,9.57
2018-12-31T04:02:32.757Z,9.58
2018-12-31T04:03:32.737Z,9.60
2018-12-31T04:04:32.683Z,9.57
2018-12-31T04:05:32.643Z,9.60
2018-12-31T04:06:32.594Z,9.58
2018-12-31T04:07:32.601Z,9.60
2018-12-31T04:08:32.517Z,9.60
2018-12-31T04:09:32.474Z,9.60
2018-12-31T04:10:32.451Z,9.60
2018-12-31T04:11:32.390Z,9.64
2018-12-31T04:12:32.363Z,9.66
2018-12-31T04:13:32.292Z,9.68
2018-12-31T04:14:32.248Z,9.66
2018-12-31T04:15:32.207Z,9.60
2018-12-31T04:16:32.166Z,9.68
2018-12-31T04:17:32.150Z,9.66
2018-12-31T04:18:32.091Z,9.71
2018-12-31T04:19:32.042Z,9.66
2018-12-31T04:20:31.992Z,9.66
2018-12-31T04:21:31.944Z,9.71
2018-12-31T04:22:31.915Z,9.66
2018-12-31T04:23:31.885Z,9.66
2018-12-31T04:24:31.830Z,9.61
2018-12-31T04:25:31.805Z,9.65
2018-12-31T04:26:31.731Z,9.68
2018-12-31T04:27:31.716Z,9.69
2018-12-31T04:28:31.667Z,9.68
2018-12-31T04:29:31.683Z,9.58
2018-12-31T04:30:31.603Z,9.61
2018-12-31T04:31:31.527Z,9.68
2018-12-31T04:32:31.478Z,9.65
2018-12-31T04:33:31.442Z,9.65
2018-12-31T04:34:31.398Z,9.72
2018-12-31T04:35:31.380Z,9.61
2018-12-31T04:36:31.315Z,9.72
2018-12-31T04:37:31.297Z,9.68
2018-12-31T04:38:31.239Z,9.74
2018-12-31T04:39:31.207Z,9.75
2018-12-31T04:40:31.163Z,9.76
2018-12-31T04:41:31.096Z,9.74
2018-12-31T04:42:31.090Z,9.74
2018-12-31T04:43:31.025Z,9.74
2018-12-31T04:44:30.992Z,9.75
2018-12-31T04:45:30.958Z,9.78
2018-12-31T04:46:30.888Z,9.71
2018-12-31T04:47:30.843Z,9.71
2018-12-31T04:48:30.841Z,9.71
2018-12-31T04:49:30.790Z,9.75
2018-12-31T04:50:30.771Z,9.71
2018-12-31T04:51:30.685Z,9.69
2018-12-31T04:52:30.643Z,9.69
2018-12-31T04:53:30.600Z,9.78
2018-12-31T04:54:30.575Z,9.78
2018-12-31T04:55:30.540Z,9.71
2018-12-31T04:56:30.511Z,9.76
2018-12-31T04:57:30.436Z,9.79
2018-12-31T04:58:30.382Z,9.75
2018-12-31T04:59:30.364Z,9.74
2018-12-31T05:00:30.303Z,9.79
2018-12-31T05:01:30.264Z,9.78
2018-12-31T05:02:30.249Z,9.76
2018-12-31T05:03:30.184Z,9.79
2018-12-31T05:04:30.131Z,9.75
2018-12-31T05:05:30.097Z,9.71
2018-12-31T05:06:30.063Z,9.76
2018-12-31T05:07:30.030Z,9.75
2018-12-31T05:08:30.004Z,9.79
2018-12-31T05:09:29.947Z,9.78
2018-12-31T05:10:29.910Z,9.79
2018-12-31T05:11:29.887Z,9.76
2018-12-31T05:12:29.822Z,9.84
2018-12-31T05:13:29.758Z,9.75
2018-12-31T05:14:29.750Z,9.72
2018-12-31T05:15:29.682Z,9.76
2018-12-31T05:16:29.644Z,9.79
2018-12-31T05:17:29.611Z,9.78
2018-12-31T05:18:29.556Z,9.83
2018-12-31T05:19:29.514Z,9.83
2018-12-31T05:20:29.478Z,9.74
2018-12-31T05:21:29.443Z,9.78
2018-12-31T05:22:29.416Z,9.75
2018-12-31T05:23:29.347Z,9.79
2018-12-31T05:24:29.287Z,9.71
2018-12-31T05:25:29.247Z,9.75
2018-12-31T05:26:29.210Z,9.76
2018-12-31T05:27:29.168Z,9.76
2018-12-31T05:28:29.154Z,9.74
2018-12-31T05:29:29.111Z,9.75
2018-12-31T05:30:29.040Z,9.83
2018-12-31T05:31:29.017Z,9.79
2018-12-31T05:32:29.010Z,9.76
2018-12-31T05:33:28.921Z,9.75
2018-12-31T05:34:28.883Z,9.79
2018-12-31T05:35:28.848Z,9.76
2018-12-31T05:36:28.789Z,9.75
2018-12-31T05:37:28.758Z,9.75
2018-12-31T05:38:28.730Z,9.81
2018-12-31T05:39:28.666Z,9.75
2018-12-31T05:40:28.621Z,9.74
2018-12-31T05:41:28.588Z,9.79
2018-12-31T05:42:28.539Z,9.83
2018-12-31T05:43:28.520Z,9.83
2018-12-31T05:44:28.449Z,9.79
2018-12-31T05:45:28.414Z,9.78
2018-12-31T05:46:28.392Z,9.76
2018-12-31T05:47:28.328Z,9.81
2018-12-31T05:48:28.287Z,9.72
2018-12-31T05:49:28.266Z,9.76
2018-12-31T05:50:28.214Z,9.83
2018-12-31T05:51:28.159Z,9.75
2018-12-31T05:52:28.139Z,9.76
2018-12-31T05:53:28.080Z,9.74
2018-12-31T05:54:28.089Z,9.87
2018-12-31T05:55:28.020Z,9.78
2018-12-31T05:56:27.955Z,9.83
2018-12-31T05:57:27.903Z,9.81
2018-12-31T05:58:27.862Z,9.87
2018-12-31T05:59:27.845Z,9.74
2018-12-31T06:00:27.808Z,9.83
2018-12-31T06:01:27.761Z,9.84
2018-12-31T06:02:27.702Z,9.78
2018-12-31T06:03:27.655Z,9.81
2018-12-31T06:04:27.616Z,9.83
2018-12-31T06:05:27.601Z,9.84
2018-12-31T06:06:27.525Z,9.78
2018-12-31T06:07:27.493Z,9.83
2018-12-31T06:08:27.441Z,9.79
2018-12-31T06:09:27.399Z,9.81
2018-12-31T06:10:27.397Z,9.87
2018-12-31T06:11:27.313Z,9.86
2018-12-31T06:12:27.273Z,9.81
2018-12-31T06:13:27.228Z,9.84
2018-12-31T06:14:27.194Z,9.78
2018-12-31T06:15:27.151Z,9.84
2018-12-31T06:16:27.149Z,9.76
2018-12-31T06:17:27.061Z,9.76
2018-12-31T06:18:27.028Z,9.78
2018-12-31T06:19:26.978Z,9.78
2018-12-31T06:20:26.940Z,9.86
2018-12-31T06:21:26.925Z,9.86
2018-12-31T06:22:26.851Z,9.87
2018-12-31T06:23:26.815Z,9.90
2018-12-31T06:24:26.775Z,9.87
2018-12-31T06:25:26.736Z,9.91
2018-12-31T06:26:26.724Z,9.79
2018-12-31T06:27:26.677Z,9.87
2018-12-31T06:28:26.600Z,9.83
2018-12-31T06:29:26.561Z,9.81
2018-12-31T06:30:26.518Z,9.81
2018-12-31T06:31:26.500Z,9.83
2018-12-31T06:32:26.444Z,9.78
2018-12-31T06:33:26.393Z,9.86
2018-12-31T06:34:26.348Z,9.91
2018-12-31T06:35:26.309Z,9.91
2018-12-31T06:36:26.303Z,9.83
2018-12-31T06:37:26.233Z,9.89
2018-12-31T06:38:26.182Z,9.86
2018-12-31T06:39:26.158Z,9.79
2018-12-31T06:40:26.105Z,9.84
2018-12-31T06:41:26.064Z,9.84
2018-12-31T06:42:26.038Z,9.79
2018-12-31T06:43:25.972Z,9.84
2018-12-31T06:44:25.929Z,9.84
2018-12-31T06:45:25.894Z,9.89
2018-12-31T06:46:25.864Z,9.87
2018-12-31T06:47:25.832Z,9.86
2018-12-31T06:48:25.777Z,9.93
2018-12-31T06:49:25.722Z,9.81
2018-12-31T06:50:25.680Z,9.86
2018-12-31T06:51:25.646Z,9.83
2018-12-31T06:52:25.627Z,9.93
2018-12-31T06:53:25.550Z,9.84
2018-12-31T06:54:25.529Z,9.86
2018-12-31T06:55:25.476Z,9.86
2018-12-31T06:56:25.442Z,9.84
2018-12-31T06:57:25.390Z,9.86
2018-12-31T06:58:25.575Z,9.93
2018-12-31T06:59:25.312Z,9.94
2018-12-31T07:00:25.263Z,9.79
2018-12-31T07:01:25.223Z,9.89
2018-12-31T07:02:25.202Z,9.89
2018-12-31T07:03:25.125Z,9.83
2018-12-31T07:04:25.098Z,9.87
2018-12-31T07:05:25.048Z,9.93
2018-12-31T07:06:25.030Z,9.87
2018-12-31T07:07:24.968Z,9.86
2018-12-31T07:08:24.939Z,9.87
2018-12-31T07:09:24.878Z,9.93
2018-12-31T07:10:24.835Z,9.86
2018-12-31T07:11:24.830Z,9.97
2018-12-31T07:12:24.774Z,9.97
2018-12-31T07:13:24.729Z,9.93
2018-12-31T07:14:24.668Z,9.96
2018-12-31T07:15:24.621Z,9.86
2018-12-31T07:16:24.586Z,9.97
2018-12-31T07:17:24.557Z,9.83
2018-12-31T07:18:24.528Z,9.93
2018-12-31T07:19:24.462Z,9.90
2018-12-31T07:20:24.415Z,9.87
2018-12-31T07:21:24.390Z,9.90
2018-12-31T07:22:24.342Z,9.97
2018-12-31T07:23:24.295Z,9.99
2018-12-31T07:24:24.240Z,9.99
2018-12-31T07:25:24.233Z,9.87
2018-12-31T07:26:24.161Z,9.87
2018-12-31T07:27:24.115Z,9.89
2018-12-31T07:28:24.091Z,9.86
2018-12-31T07:29:24.035Z,9.87
2018-12-31T07:30:23.994Z,9.87
2018-12-31T07:31:23.972Z,9.87
2018-12-31T07:32:33.234Z,9.86
2018-12-31T07:33:23.862Z,9.84
2018-12-31T07:34:31.774Z,9.86
2018-12-31T07:35:23.780Z,9.86
2018-12-31T07:36:23.764Z,9.86
2018-12-31T07:37:23.721Z,9.87
2018-12-31T07:38:23.766Z,9.83
2018-12-31T07:39:23.622Z,9.97
2018-12-31T07:40:23.567Z,9.90
2018-12-31T07:41:23.525Z,10.04
2018-12-31T07:42:23.501Z,9.94
2018-12-31T07:43:23.437Z,9.96
2018-12-31T07:44:23.405Z,9.86
2018-12-31T07:45:23.374Z,9.97
2018-12-31T07:46:23.357Z,9.93
2018-12-31T07:47:23.277Z,9.93
2018-12-31T07:48:23.223Z,9.90
2018-12-31T07:49:23.186Z,9.90
2018-12-31T07:50:23.151Z,10.01
2018-12-31T07:51:23.113Z,10.05
2018-12-31T07:52:23.111Z,9.93
2018-12-31T07:53:23.017Z,10.05
2018-12-31T07:54:22.995Z,10.05
2018-12-31T07:55:22.933Z,10.05
2018-12-31T07:56:22.926Z,9.97
2018-12-31T07:57:22.873Z,9.96
2018-12-31T07:58:22.815Z,9.96
2018-12-31T07:59:22.794Z,9.94
2018-12-31T08:00:22.720Z,9.97
2018-12-31T08:01:22.680Z,9.97
2018-12-31T08:02:22.640Z,10.02
2018-12-31T08:03:22.619Z,9.97
2018-12-31T08:04:22.572Z,10.02
2018-12-31T08:05:22.526Z,10.01
2018-12-31T08:06:22.505Z,10.04
2018-12-31T08:07:22.426Z,10.02
2018-12-31T08:08:22.408Z,9.94
2018-12-31T08:09:22.379Z,9.99
2018-12-31T08:10:22.314Z,9.97
2018-12-31T08:11:22.267Z,10.07
2018-12-31T08:12:22.256Z,10.01
2018-12-31T08:13:22.198Z,10.01
2018-12-31T08:14:22.137Z,10.04
2018-12-31T08:15:22.125Z,9.96
2018-12-31T08:16:22.066Z,10.02
2018-12-31T08:17:22.051Z,9.96
2018-12-31T08:18:21.983Z,10.08
2018-12-31T08:19:21.948Z,10.05
2018-12-31T08:20:21.883Z,9.97
2018-12-31T08:21:21.866Z,9.99
2018-12-31T08:22:21.855Z,10.09
2018-12-31T08:23:21.784Z,9.97
2018-12-31T08:24:21.728Z,10.08
2018-12-31T08:25:21.683Z,10.02
2018-12-31T08:26:21.666Z,10.08
2018-12-31T08:27:21.602Z,10.05
2018-12-31T08:28:21.590Z,10.05
2018-12-31T08:29:21.515Z,10.12
2018-12-31T08:30:21.473Z,10.08
2018-12-31T08:31:21.454Z,10.12
2018-12-31T08:32:21.390Z,10.05
2018-12-31T08:33:21.366Z,10.14
2018-12-31T08:34:21.297Z,10.04
2018-12-31T08:35:21.279Z,10.08
2018-12-31T08:36:21.810Z,9.99
2018-12-31T08:37:21.176Z,9.99
2018-12-31T08:38:21.159Z,10.08
2018-12-31T08:39:21.101Z,10.07
2018-12-31T08:40:21.070Z,10.09
2018-12-31T08:41:21.014Z,10.07
2018-12-31T08:42:20.978Z,10.14
2018-12-31T08:43:20.972Z,10.07
2018-12-31T08:44:20.890Z,10.08
2018-12-31T08:45:20.853Z,10.14
2018-12-31T08:46:20.803Z,10.07
2018-12-31T08:47:20.784Z,10.07
2018-12-31T08:48:20.745Z,10.07
2018-12-31T08:49:20.707Z,10.08
2018-12-31T08:50:20.632Z,10.15
2018-12-31T08:51:20.598Z,10.11
2018-12-31T08:52:20.546Z,10.09
2018-12-31T08:53:20.515Z,10.05
2018-12-31T08:54:20.486Z,10.15
2018-12-31T08:55:20.923Z,10.07
2018-12-31T08:56:20.389Z,10.14
2018-12-31T08:57:20.354Z,10.12
2018-12-31T08:58:20.298Z,10.08
2018-12-31T08:59:20.278Z,10.09
2018-12-31T09:00:20.221Z,10.08
2018-12-31T09:01:20.192Z,10.11
2018-12-31T09:02:20.128Z,10.14
2018-12-31T09:03:20.097Z,9.97
2018-12-31T09:04:20.086Z,10.09
2018-12-31T09:05:20.023Z,10.08
2018-12-31T09:06:19.960Z,10.09
2018-12-31T09:07:19.928Z,10.12
2018-12-31T09:08:19.878Z,10.09
2018-12-31T09:09:19.868Z,10.07
2018-12-31T09:10:19.794Z,9.99
2018-12-31T09:11:19.753Z,10.09
2018-12-31T09:12:19.707Z,10.07
2018-12-31T09:13:19.680Z,10.09
2018-12-31T09:14:19.657Z,10.14
2018-12-31T09:15:19.587Z,10.07
2018-12-31T09:16:19.533Z,10.07
2018-12-31T09:17:19.504Z,10.07
2018-12-31T09:18:19.457Z,10.07
2018-12-31T09:19:19.411Z,10.12
2018-12-31T09:20:19.401Z,10.15
2018-12-31T09:21:19.349Z,10.11
2018-12-31T09:22:19.294Z,10.09
2018-12-31T09:23:19.261Z,10.12
2018-12-31T09:24:19.203Z,10.15
2018-12-31T09:25:19.216Z,10.09
2018-12-31T09:26:19.127Z,10.14
2018-12-31T09:27:19.118Z,10.12
2018-12-31T09:28:19.057Z,10.12
2018-12-31T09:29:18.995Z,10.11
2018-12-31T09:30:18.988Z,10.15
2018-12-31T09:31:18.946Z,10.08
2018-12-31T09:32:18.899Z,10.12
2018-12-31T09:33:18.855Z,10.05
2018-12-31T09:34:18.787Z,10.11
2018-12-31T09:35:18.767Z,10.15
2018-12-31T09:36:18.712Z,10.25
2018-12-31T09:37:18.694Z,10.27
2018-12-31T09:38:18.621Z,10.11
2018-12-31T09:39:18.605Z,10.15
2018-12-31T09:40:18.547Z,10.15
2018-12-31T09:41:18.521Z,10.15
2018-12-31T09:42:18.476Z,10.18
2018-12-31T09:43:18.424Z,10.11
2018-12-31T09:44:18.370Z,10.12
2018-12-31T09:45:18.337Z,10.23
2018-12-31T09:46:18.315Z,10.17
2018-12-31T09:47:18.243Z,10.18
2018-12-31T09:48:18.210Z,10.14
2018-12-31T09:49:18.169Z,10.23
2018-12-31T09:50:18.118Z,10.30
2018-12-31T09:51:18.110Z,10.20
2018-12-31T09:52:18.044Z,10.26
2018-12-31T09:53:18.011Z,10.17
2018-12-31T09:54:17.961Z,10.34
2018-12-31T09:55:17.920Z,10.20
2018-12-31T09:56:17.865Z,10.15
2018-12-31T09:57:17.852Z,10.25
2018-12-31T09:58:17.829Z,10.25
2018-12-31T09:59:17.749Z,10.26
2018-12-31T10:00:17.709Z,10.18
2018-12-31T10:01:17.661Z,10.17
2018-12-31T10:02:17.645Z,10.25
2018-12-31T10:03:17.572Z,10.14
2018-12-31T10:04:17.538Z,10.14
2018-12-31T10:05:17.515Z,10.22
2018-12-31T10:06:17.465Z,10.27
2018-12-31T10:07:17.421Z,10.27
2018-12-31T10:08:17.421Z,10.15
2018-12-31T10:09:17.331Z,10.23
2018-12-31T10:10:17.288Z,10.26
2018-12-31T10:11:17.279Z,10.26
2018-12-31T10:12:17.206Z,10.25
2018-12-31T10:13:17.174Z,10.22
2018-12-31T10:14:17.126Z,10.17
2018-12-31T10:15:17.082Z,10.22
2018-12-31T10:16:17.052Z,10.23
2018-12-31T10:17:17.047Z,10.27
2018-12-31T10:18:16.964Z,10.23
2018-12-31T10:19:16.923Z,10.26
2018-12-31T10:20:16.883Z,10.25
2018-12-31T10:21:16.841Z,10.29
2018-12-31T10:22:16.782Z,10.29
2018-12-31T10:23:16.767Z,10.12
2018-12-31T10:24:16.715Z,10.22
2018-12-31T10:25:16.676Z,10.14
2018-12-31T10:26:16.630Z,10.15
2018-12-31T10:27:16.616Z,10.25
2018-12-31T10:28:16.540Z,10.22
2018-12-31T10:29:16.515Z,10.34
2018-12-31T10:30:16.473Z,10.29
2018-12-31T10:31:16.426Z,10.30
2018-12-31T10:32:16.377Z,10.29
2018-12-31T10:33:16.420Z,10.29
2018-12-31T10:34:16.300Z,10.29
2018-12-31T10:35:16.267Z,10.30
2018-12-31T10:36:16.212Z,10.23
2018-12-31T10:37:16.212Z,10.25
2018-12-31T10:38:16.159Z,10.30
2018-12-31T10:39:16.116Z,10.29
2018-12-31T10:40:16.065Z,10.32
2018-12-31T10:41:16.067Z,10.30
2018-12-31T10:42:15.986Z,10.34
2018-12-31T10:43:15.980Z,10.29
2018-12-31T10:44:15.887Z,10.30
2018-12-31T10:45:15.832Z,10.29
2018-12-31T10:46:15.796Z,10.32
2018-12-31T10:47:15.751Z,10.25
2018-12-31T10:48:15.733Z,10.27
2018-12-31T10:49:15.700Z,10.30
2018-12-31T10:50:15.627Z,10.30
2018-12-31T10:51:15.594Z,10.34
2018-12-31T10:52:15.543Z,10.32
2018-12-31T10:53:15.499Z,10.33
2018-12-31T10:54:15.485Z,10.33
2018-12-31T10:55:15.409Z,10.47
2018-12-31T10:56:15.378Z,10.40
2018-12-31T10:57:15.343Z,10.52
2018-12-31T10:58:15.311Z,10.44
2018-12-31T10:59:15.281Z,10.45
2018-12-31T11:00:15.207Z,10.42
2018-12-31T11:01:15.191Z,10.48
2018-12-31T11:02:15.150Z,10.52
2018-12-31T11:03:15.088Z,10.52
2018-12-31T11:04:15.061Z,10.55
2018-12-31T11:05:15.068Z,10.67
2018-12-31T11:06:14.966Z,10.51
2018-12-31T11:07:14.971Z,10.56
2018-12-31T11:08:14.890Z,10.53
2018-12-31T11:09:14.846Z,10.61
2018-12-31T11:10:14.862Z,10.59
2018-12-31T11:11:14.768Z,10.55
2018-12-31T11:12:14.729Z,10.48
2018-12-31T11:13:14.668Z,10.60
2018-12-31T11:14:15.325Z,10.55
2018-12-31T11:15:14.617Z,10.63
2018-12-31T11:16:14.554Z,10.53
2018-12-31T11:17:14.536Z,10.47
2018-12-31T11:18:14.457Z,10.48
2018-12-31T11:19:14.419Z,10.51
2018-12-31T11:20:14.417Z,10.48
2018-12-31T11:21:14.341Z,10.34
2018-12-31T11:22:14.327Z,10.42
2018-12-31T11:23:14.263Z,10.44
2018-12-31T11:24:14.238Z,10.36
2018-12-31T11:25:14.168Z,10.34
2018-12-31T11:26:14.168Z,10.36
2018-12-31T11:27:14.094Z,10.41
2018-12-31T11:28:14.060Z,10.42
2018-12-31T11:29:14.076Z,10.41
2018-12-31T11:30:13.966Z,10.42
2018-12-31T11:31:13.931Z,10.45
2018-12-31T11:32:13.903Z,10.41
2018-12-31T11:33:13.840Z,10.36
2018-12-31T11:34:14.735Z,10.40
2018-12-31T11:35:13.782Z,10.40
2018-12-31T11:36:13.725Z,10.41
2018-12-31T11:37:13.719Z,10.42
2018-12-31T11:38:13.636Z,10.40
2018-12-31T11:39:13.608Z,10.38
2018-12-31T11:40:13.566Z,10.40
2018-12-31T11:41:13.542Z,10.30
2018-12-31T11:42:13.529Z,10.32
2018-12-31T11:43:13.443Z,10.44
2018-12-31T11:44:13.428Z,10.38
2018-12-31T11:45:13.366Z,10.40
2018-12-31T11:46:13.358Z,10.36
2018-12-31T11:47:13.363Z,10.52
2018-12-31T11:48:13.277Z,10.42
2018-12-31T11:49:13.216Z,10.45
2018-12-31T11:50:13.145Z,10.56
2018-12-31T11:51:13.124Z,10.64
2018-12-31T11:52:13.091Z,10.52
2018-12-31T11:53:13.020Z,10.59
2018-12-31T11:54:13.024Z,10.55
2018-12-31T11:55:12.953Z,10.56
2018-12-31T11:56:12.899Z,10.55
2018-12-31T11:57:12.890Z,10.47
2018-12-31T11:58:12.845Z,10.55
2018-12-31T11:59:21.546Z,10.59
2018-12-31T12:01:53.054Z,10.60
2018-12-31T12:02:52.990Z,10.63
2018-12-31T12:03:52.937Z,10.64
2018-12-31T12:04:52.919Z,10.68
2018-12-31T12:05:52.852Z,10.66
2018-12-31T12:06:52.807Z,10.61
2018-12-31T12:07:52.776Z,10.73
2018-12-31T12:08:52.735Z,10.66
2018-12-31T12:09:52.691Z,10.53
2018-12-31T12:10:52.720Z,10.63
2018-12-31T12:12:01.670Z,10.66
2018-12-31T12:12:52.641Z,10.68
2018-12-31T12:13:52.517Z,10.60
2018-12-31T12:14:52.476Z,10.68
2018-12-31T12:15:52.457Z,10.71
2018-12-31T12:16:52.414Z,10.74
2018-12-31T12:17:52.345Z,10.73
2018-12-31T12:18:52.411Z,10.66
2018-12-31T12:19:52.272Z,10.71
2018-12-31T12:20:52.308Z,10.64
2018-12-31T12:21:52.216Z,10.64
2018-12-31T12:22:52.183Z,10.64
2018-12-31T12:23:52.119Z,10.64
2018-12-31T12:24:52.083Z,10.63
2018-12-31T12:25:52.050Z,10.66
2018-12-31T12:26:52.058Z,10.68
2018-12-31T12:27:51.969Z,10.61
2018-12-31T12:28:51.908Z,10.66
2018-12-31T12:29:51.868Z,10.63
2018-12-31T12:30:51.818Z,10.63
2018-12-31T12:31:51.783Z,10.55
2018-12-31T12:32:51.828Z,10.55
2018-12-31T12:33:51.691Z,10.59
2018-12-31T12:34:51.666Z,10.55
2018-12-31T12:35:51.617Z,10.56
2018-12-31T12:36:51.564Z,10.59
2018-12-31T12:37:51.524Z,10.61
2018-12-31T12:38:51.519Z,10.59
2018-12-31T12:39:51.453Z,10.51
2018-12-31T12:40:51.408Z,10.59
2018-12-31T12:41:51.369Z,10.64
2018-12-31T12:42:51.341Z,10.59
2018-12-31T12:43:51.281Z,10.55
2018-12-31T12:44:51.263Z,10.59
2018-12-31T12:45:51.198Z,10.68
2018-12-31T12:46:51.163Z,10.63
2018-12-31T12:47:51.111Z,10.67
2018-12-31T12:48:51.070Z,10.66
2018-12-31T12:49:51.024Z,10.63
2018-12-31T12:50:51.009Z,10.59
2018-12-31T12:51:50.950Z,10.68
2018-12-31T12:52:50.912Z,10.70
2018-12-31T12:53:50.874Z,10.68
2018-12-31T12:54:50.842Z,10.59
2018-12-31T12:55:50.815Z,10.66
2018-12-31T12:56:50.738Z,10.64
2018-12-31T12:57:50.715Z,10.70
2018-12-31T12:58:50.656Z,10.61
2018-12-31T12:59:50.620Z,10.63
2018-12-31T13:00:50.605Z,10.59
2018-12-31T13:01:50.559Z,10.61
2018-12-31T13:02:50.498Z,10.61
2018-12-31T13:03:50.460Z,10.63
2018-12-31T13:04:50.414Z,10.68
2018-12-31T13:05:50.391Z,10.66
2018-12-31T13:06:50.333Z,10.64
2018-12-31T13:07:50.283Z,10.63
2018-12-31T13:08:50.241Z,10.60
2018-12-31T13:09:50.206Z,10.63